Asiatic Wave — 9V8790 — position and weather

sailwx.info

Track history (hours):
 
Tides and Currents Weather Stations Pressure Air Temp Water Temp Dewpoint Dewpoint Depression Visibility Wind Speed Wind Dir Waves Ship Positions

Asiatic Wave

Last reported at 2016-Sep-22 04:29 UTC. Time now 2016-Sep-25 15:43 UTC.
Position N 31°20' E 121°40'.

Length 150 m; draft 7.1 m.

Type: Ship. MMSI: 564211000.

Date/timePositionNaut miles runAvg speedWind from/ knotsBaromVisibWave heightAir tempDewpointWater temp
2016-Sep-22 04:29N 31°20' E 121°40'5 0.1
2016-Sep-20 02:20N 31°22' E 121°35'0 0.0
2016-Sep-19 23:30N 31°22' E 121°35'0 0.0
2016-Sep-19 19:24N 31°22' E 121°35'0 0.0
2016-Sep-19 18:23N 31°22' E 121°35'1 0.8
2016-Sep-19 16:33N 31°23' E 121°34'  
2016-Sep-16 17:33N 35°27' E 139°41'0 0.0
2016-Sep-16 15:32N 35°27' E 139°41'11 3.7
2016-Sep-16 12:33N 35°36' E 139°48'0 0.0
2016-Sep-16 09:32N 35°36' E 139°48'0 0.0
2016-Sep-16 07:31N 35°36' E 139°48'0 0.0
2016-Sep-16 03:32N 35°36' E 139°48'0 0.0
2016-Sep-16 02:25N 35°36' E 139°48'0 0.0
2016-Sep-16 00:31N 35°36' E 139°48'0 0.0
2016-Sep-15 22:33N 35°36' E 139°48'7 6.9
2016-Sep-15 21:34N 35°30' E 139°52'1312.5
2016-Sep-15 20:33N 35°19' E 139°44'2412.1
2016-Sep-15 18:33N 34°58' E 139°30'  
2016-Sep-13 04:33N 31°18' E 121°47'6 3.1
2016-Sep-13 02:29N 31°20' E 121°40'0 0.0
2016-Sep-12 23:26N 31°20' E 121°40'0 0.0
2016-Sep-12 21:10N 31°20' E 121°40'0 0.0
2016-Sep-12 19:33N 31°20' E 121°40'1 0.2
2016-Sep-12 14:31N 31°20' E 121°40'  
Track history (hours):
 
Tides and Currents Weather Stations Pressure Air Temp Water Temp Dewpoint Dewpoint Depression Visibility Wind Speed Wind Dir Waves Ship Positions

Asiatic Wave

Last reported at 2016-Sep-22 04:29 UTC. Time now 2016-Sep-25 15:43 UTC.
Position N 31°20' E 121°40'.

Length 150 m; draft 7.1 m.

Type: Ship. MMSI: 564211000.

Date/timePositionNaut miles runAvg speedWind from/ knotsBaromVisibWave heightAir tempDewpointWater temp
2016-Sep-22 04:29N 31°20' E 121°40'5 0.1
2016-Sep-20 02:20N 31°22' E 121°35'0 0.0
2016-Sep-19 23:30N 31°22' E 121°35'0 0.0
2016-Sep-19 19:24N 31°22' E 121°35'0 0.0
2016-Sep-19 18:23N 31°22' E 121°35'1 0.8
2016-Sep-19 16:33N 31°23' E 121°34'  
2016-Sep-16 17:33N 35°27' E 139°41'0 0.0
2016-Sep-16 15:32N 35°27' E 139°41'11 3.7
2016-Sep-16 12:33N 35°36' E 139°48'0 0.0
2016-Sep-16 09:32N 35°36' E 139°48'0 0.0
2016-Sep-16 07:31N 35°36' E 139°48'0 0.0
2016-Sep-16 03:32N 35°36' E 139°48'0 0.0
2016-Sep-16 02:25N 35°36' E 139°48'0 0.0
2016-Sep-16 00:31N 35°36' E 139°48'0 0.0
2016-Sep-15 22:33N 35°36' E 139°48'7 6.9
2016-Sep-15 21:34N 35°30' E 139°52'1312.5
2016-Sep-15 20:33N 35°19' E 139°44'2412.1
2016-Sep-15 18:33N 34°58' E 139°30'  
2016-Sep-13 04:33N 31°18' E 121°47'6 3.1
2016-Sep-13 02:29N 31°20' E 121°40'0 0.0
2016-Sep-12 23:26N 31°20' E 121°40'0 0.0
2016-Sep-12 21:10N 31°20' E 121°40'0 0.0
2016-Sep-12 19:33N 31°20' E 121°40'1 0.2
2016-Sep-12 14:31N 31°20' E 121°40'  

Dump ship's entire track history